Time;durP1;ratioP1;P1;durP2;ratioP2;P2;SDS_P1;SDS_P2;PMS_P1;PMS_P2;Temp;Humidity;BMP_temperature;BMP_pressure;BME280_temperature;BME280_humidity;BME280_pressure;Samples;Min_cycle;Max_cycle;Signal;HPM_P1;HPM_P2
2022/02/26 00:02:15;;;;;;;3.50;3.20;;;17.10;63.40;;;;;;5065762;28;20114;-22
2022/02/26 00:04:40;;;;;;;4.18;3.75;;;17.10;63.40;;;;;;5067039;28;20045;-22
2022/02/26 00:07:08;;;;;;;3.33;2.90;;;17.10;63.30;;;;;;5066869;28;20047;-22
2022/02/26 00:09:33;;;;;;;3.03;2.83;;;17.10;63.30;;;;;;5064260;28;20059;-22
2022/02/26 00:11:59;;;;;;;3.40;3.10;;;17.10;63.40;;;;;;5066005;28;20553;-22
2022/02/26 00:14:25;;;;;;;3.85;2.90;;;17.10;63.40;;;;;;5069266;28;20044;-23
2022/02/26 00:16:50;;;;;;;3.15;2.95;;;17.10;64.00;;;;;;5063187;28;20132;-22
2022/02/26 00:19:16;;;;;;;3.22;3.00;;;17.10;63.40;;;;;;5065509;28;20525;-22
2022/02/26 00:21:41;;;;;;;3.00;2.80;;;17.10;63.50;;;;;;5071677;28;20032;-22
2022/02/26 00:24:07;;;;;;;3.10;2.85;;;17.00;63.50;;;;;;5056881;28;20041;-22
2022/02/26 00:26:33;;;;;;;3.08;2.88;;;17.00;63.40;;;;;;5075327;28;20044;-22
2022/02/26 00:28:58;;;;;;;2.75;2.55;;;17.00;63.60;;;;;;5061270;28;20513;-22
2022/02/26 00:31:24;;;;;;;3.17;2.97;;;17.00;63.70;;;;;;5056094;28;20040;-23
2022/02/26 00:33:50;;;;;;;3.60;2.80;;;17.00;63.60;;;;;;5063806;28;20094;-22
2022/02/26 00:36:15;;;;;;;2.95;2.65;;;17.00;63.40;;;;;;5070867;28;20044;-22
2022/02/26 00:38:41;;;;;;;3.20;2.90;;;17.00;63.20;;;;;;5067925;28;20068;-22
2022/02/26 00:41:06;;;;;;;2.80;2.60;;;17.00;63.20;;;;;;5072822;28;20533;-22
2022/02/26 00:43:32;;;;;;;2.85;2.65;;;17.00;63.10;;;;;;5074045;28;20047;-23
2022/02/26 00:45:57;;;;;;;2.50;2.30;;;17.00;63.70;;;;;;5071069;28;20052;-22
2022/02/26 00:49:46;;;;;;;3.30;3.00;;;17.00;62.90;;;;;;5060630;28;20048;-21
2022/02/26 00:51:09;;;;;;;4.18;2.95;;;17.00;63.00;;;;;;5066047;28;20036;-21
2022/02/26 00:53:34;;;;;;;3.17;2.90;;;17.00;62.80;;;;;;5070243;28;20047;-22
2022/02/26 00:56:00;;;;;;;2.80;2.40;;;16.90;63.10;;;;;;5071118;28;20045;-22
2022/02/26 00:58:26;;;;;;;2.53;2.33;;;16.90;63.00;;;;;;5054097;28;20072;-23
2022/02/26 01:00:51;;;;;;;2.70;2.50;;;16.90;63.00;;;;;;5055700;28;20045;-21
2022/02/26 01:03:17;;;;;;;2.70;2.50;;;16.90;63.10;;;;;;5057900;28;20132;-21
2022/02/26 01:05:42;;;;;;;3.10;2.80;;;16.90;62.90;;;;;;5073042;28;20048;-21
2022/02/26 01:08:08;;;;;;;2.92;2.55;;;16.90;63.20;;;;;;5074705;28;20032;-21
2022/02/26 01:10:34;;;;;;;2.97;2.72;;;16.90;63.00;;;;;;5068513;28;20040;-21
2022/02/26 01:13:00;;;;;;;2.90;2.70;;;16.90;62.90;;;;;;5069607;28;20501;-21
2022/02/26 01:15:26;;;;;;;3.20;2.90;;;16.90;62.80;;;;;;5070010;28;20044;-21
2022/02/26 01:17:52;;;;;;;2.45;2.25;;;16.90;62.70;;;;;;5069050;28;20048;-21
2022/02/26 01:20:17;;;;;;;2.70;2.50;;;16.90;62.70;;;;;;5067345;28;20056;-22
2022/02/26 01:22:43;;;;;;;3.00;2.78;;;16.90;62.50;;;;;;5072388;28;20048;-21
2022/02/26 01:25:09;;;;;;;2.85;2.65;;;16.90;62.60;;;;;;5062975;28;20048;-21
2022/02/26 01:27:34;;;;;;;2.80;2.45;;;16.90;62.70;;;;;;5071498;28;20049;-22
2022/02/26 01:30:00;;;;;;;2.50;2.30;;;16.90;62.80;;;;;;5062589;28;20079;-21
2022/02/26 01:32:26;;;;;;;2.97;2.70;;;16.90;62.90;;;;;;5055043;28;20040;-22
2022/02/26 01:34:51;;;;;;;2.85;2.40;;;16.90;62.60;;;;;;5057238;28;20049;-22
2022/02/26 01:37:17;;;;;;;2.63;2.42;;;16.90;62.40;;;;;;5062752;28;20048;-21
2022/02/26 01:39:42;;;;;;;3.00;2.70;;;16.90;62.30;;;;;;5071828;28;20068;-21
2022/02/26 01:42:08;;;;;;;2.92;2.60;;;17.00;62.30;;;;;;5068621;28;20098;-21
2022/02/26 01:44:37;;;;;;;2.60;2.40;;;16.90;62.40;;;;;;5060569;28;20147;-21
2022/02/26 01:47:03;;;;;;;3.08;2.78;;;16.90;62.30;;;;;;5072953;28;20044;-21
2022/02/26 01:49:29;;;;;;;2.97;2.70;;;16.90;62.50;;;;;;5070478;28;20489;-23
2022/02/26 01:51:55;;;;;;;2.60;2.40;;;16.90;62.30;;;;;;5074612;28;20846;-21
2022/02/26 01:54:20;;;;;;;2.38;2.20;;;16.90;62.20;;;;;;5067054;28;20052;-21
2022/02/26 01:56:46;;;;;;;3.50;3.20;;;16.90;62.30;;;;;;5055259;28;20048;-22
2022/02/26 01:59:11;;;;;;;2.50;2.30;;;16.90;62.30;;;;;;5055791;28;20072;-21
2022/02/26 02:01:37;;;;;;;2.50;2.40;;;16.90;62.40;;;;;;5071559;28;20060;-22
2022/02/26 02:04:03;;;;;;;2.20;2.00;;;16.80;62.50;;;;;;5073502;28;20497;-21
2022/02/26 02:06:29;;;;;;;2.47;2.28;;;16.90;62.30;;;;;;5072067;28;20795;-21
2022/02/26 02:08:54;;;;;;;2.42;1.98;;;16.80;62.30;;;;;;5066582;28;20417;-21
2022/02/26 02:11:21;;;;;;;2.65;2.25;;;16.90;62.40;;;;;;5069317;28;20135;-22
2022/02/26 02:13:47;;;;;;;2.22;2.13;;;16.90;62.40;;;;;;5072103;28;20044;-21
2022/02/26 02:16:17;;;;;;;2.47;2.28;;;16.80;62.40;;;;;;5073500;28;20071;-21
2022/02/26 02:18:43;;;;;;;2.80;2.60;;;16.80;62.40;;;;;;5067889;28;20613;-22
2022/02/26 02:21:08;;;;;;;2.53;2.25;;;16.80;62.50;;;;;;5072780;28;20562;-21
2022/02/26 02:23:34;;;;;;;2.58;2.38;;;16.80;62.50;;;;;;5063195;28;20084;-21
2022/02/26 02:25:59;;;;;;;2.38;2.17;;;16.70;62.50;;;;;;5070156;28;20048;-22
2022/02/26 02:28:25;;;;;;;2.53;2.33;;;16.70;62.50;;;;;;5090030;28;20029;-21
2022/02/26 02:30:51;;;;;;;2.83;2.55;;;16.70;62.40;;;;;;5057384;28;20083;-21
2022/02/26 02:33:16;;;;;;;2.67;2.47;;;16.70;62.40;;;;;;5059660;28;20040;-22
2022/02/26 02:35:42;;;;;;;3.10;2.60;;;16.70;62.30;;;;;;5074117;28;20047;-22
2022/02/26 02:38:10;;;;;;;2.42;2.22;;;16.70;63.10;;;;;;5066931;28;20516;-22
2022/02/26 02:40:36;;;;;;;2.33;2.03;;;16.80;62.30;;;;;;5059261;28;20102;-21
2022/02/26 02:43:02;;;;;;;2.17;1.98;;;16.70;62.30;;;;;;5057512;28;20049;-22
2022/02/26 02:45:27;;;;;;;2.53;2.15;;;16.70;62.20;;;;;;5058156;28;20509;-21
2022/02/26 02:47:53;;;;;;;2.70;2.50;;;16.70;62.20;;;;;;5060232;28;20048;-21
2022/02/26 02:50:19;;;;;;;2.70;2.50;;;16.70;62.20;;;;;;5075156;28;20040;-22
2022/02/26 02:52:45;;;;;;;2.38;2.28;;;16.70;62.30;;;;;;5071362;28;20048;-21
2022/02/26 02:55:12;;;;;;;2.60;2.40;;;16.70;62.30;;;;;;5072248;28;20052;-21
2022/02/26 02:57:38;;;;;;;2.53;2.33;;;16.70;62.30;;;;;;5067461;28;20413;-21
2022/02/26 03:00:05;;;;;;;2.15;2.05;;;16.70;62.20;;;;;;5066097;28;20118;-22
2022/02/26 03:02:31;;;;;;;2.00;1.90;;;16.70;62.10;;;;;;5057678;28;20569;-21
2022/02/26 03:04:56;;;;;;;2.60;2.38;;;16.70;62.00;;;;;;5056899;28;20044;-21
2022/02/26 03:07:22;;;;;;;2.08;1.98;;;16.70;62.00;;;;;;5070700;28;20041;-21
2022/02/26 03:09:47;;;;;;;2.15;1.95;;;16.70;62.10;;;;;;5068904;28;20413;-22
2022/02/26 03:12:13;;;;;;;2.03;1.92;;;16.70;62.10;;;;;;5072101;28;20131;-22
2022/02/26 03:14:38;;;;;;;2.08;1.88;;;16.70;62.10;;;;;;5056485;28;20521;-21
2022/02/26 03:17:05;;;;;;;2.17;1.98;;;16.70;62.00;;;;;;5065230;28;20048;-21
2022/02/26 03:19:30;;;;;;;2.40;2.30;;;16.80;61.90;;;;;;5075766;28;20135;-22
2022/02/26 03:21:57;;;;;;;2.17;1.98;;;16.70;61.90;;;;;;5064219;28;20497;-22
2022/02/26 03:24:22;;;;;;;2.13;1.92;;;16.70;61.90;;;;;;5068025;28;20344;-22
2022/02/26 03:26:55;;;;;;;3.17;2.45;;;16.70;61.90;;;;;;5068854;28;20074;-22
2022/02/26 03:29:22;;;;;;;1.98;1.88;;;16.70;62.00;;;;;;5072355;28;20048;-22
2022/02/26 03:31:48;;;;;;;2.35;2.15;;;16.70;61.90;;;;;;5076678;28;20048;-21
2022/02/26 03:34:13;;;;;;;2.20;2.00;;;16.70;61.90;;;;;;5074191;28;20429;-21
2022/02/26 03:36:39;;;;;;;1.83;1.60;;;16.70;61.80;;;;;;5069041;28;20045;-22
2022/02/26 03:39:05;;;;;;;1.98;1.88;;;16.70;62.00;;;;;;5070596;28;20127;-21
2022/02/26 03:41:31;;;;;;;2.20;2.00;;;16.70;61.80;;;;;;5061603;28;20068;-22
2022/02/26 03:43:56;;;;;;;1.90;1.80;;;16.70;61.70;;;;;;5075715;28;20049;-24
2022/02/26 03:46:23;;;;;;;1.90;1.80;;;16.70;61.70;;;;;;5073532;28;20055;-21
2022/02/26 03:48:52;;;;;;;2.28;1.92;;;16.70;61.60;;;;;;5073133;28;20086;-22
2022/02/26 03:51:17;;;;;;;2.17;1.98;;;16.70;61.70;;;;;;5066704;28;20493;-22
2022/02/26 03:53:43;;;;;;;2.15;1.95;;;16.70;61.70;;;;;;5069779;28;20449;-22
2022/02/26 03:56:09;;;;;;;2.10;1.90;;;16.70;62.10;;;;;;5061349;28;20049;-22
2022/02/26 03:58:34;;;;;;;1.95;1.85;;;16.70;62.00;;;;;;5068857;28;20029;-22
2022/02/26 04:01:00;;;;;;;2.25;2.05;;;16.70;61.90;;;;;;5065471;28;20053;-21
2022/02/26 04:03:25;;;;;;;2.00;1.58;;;16.70;61.90;;;;;;5065002;28;20047;-21
2022/02/26 04:05:51;;;;;;;2.33;1.95;;;16.70;62.10;;;;;;5061339;28;20067;-22
2022/02/26 04:08:17;;;;;;;1.92;1.83;;;16.60;62.10;;;;;;5065349;28;20110;-21
2022/02/26 04:10:42;;;;;;;2.25;1.70;;;16.70;62.80;;;;;;5065000;28;20048;-22
2022/02/26 04:13:08;;;;;;;2.50;1.85;;;16.70;61.80;;;;;;5065791;28;20059;-21
2022/02/26 04:15:33;;;;;;;2.08;1.70;;;16.70;61.70;;;;;;5063567;28;20094;-21
2022/02/26 04:17:59;;;;;;;1.70;1.60;;;16.70;62.10;;;;;;5064807;28;20408;-21
2022/02/26 04:20:25;;;;;;;1.80;1.70;;;16.70;61.70;;;;;;5065564;28;20473;-21
2022/02/26 04:22:50;;;;;;;1.60;1.50;;;16.60;61.60;;;;;;5065090;28;20052;-22
2022/02/26 04:25:16;;;;;;;1.60;1.50;;;16.70;61.80;;;;;;5064623;28;20413;-22
2022/02/26 04:27:41;;;;;;;1.80;1.70;;;16.60;61.80;;;;;;5062196;28;20090;-22
2022/02/26 04:30:08;;;;;;;1.60;1.50;;;16.60;61.80;;;;;;5063901;28;20045;-23
2022/02/26 04:32:35;;;;;;;1.83;1.67;;;16.60;61.70;;;;;;5064498;28;20040;-22
2022/02/26 04:35:00;;;;;;;2.08;1.67;;;16.60;61.80;;;;;;5063747;28;20106;-22
2022/02/26 04:37:26;;;;;;;1.65;1.52;;;16.60;61.70;;;;;;5063180;28;20052;-22
2022/02/26 04:39:52;;;;;;;2.10;1.85;;;16.60;61.70;;;;;;5068631;28;20104;-22
2022/02/26 04:42:17;;;;;;;1.92;1.70;;;16.60;61.80;;;;;;5066777;28;20036;-22
2022/02/26 04:44:44;;;;;;;1.55;1.45;;;16.60;62.20;;;;;;5063594;28;20043;-22
2022/02/26 04:47:11;;;;;;;1.52;1.42;;;16.60;61.90;;;;;;5063717;28;20160;-21
2022/02/26 04:49:36;;;;;;;2.25;1.75;;;16.60;61.80;;;;;;5065051;28;20397;-22
2022/02/26 04:52:02;;;;;;;2.17;1.50;;;16.60;61.80;;;;;;5063948;28;20194;-22
2022/02/26 04:54:28;;;;;;;1.60;1.50;;;16.60;61.80;;;;;;5065360;28;20509;-22
2022/02/26 04:56:53;;;;;;;1.88;1.45;;;16.60;61.70;;;;;;5064501;28;20059;-22
2022/02/26 04:59:19;;;;;;;1.80;1.70;;;16.60;61.60;;;;;;5066835;28;20036;-22
2022/02/26 05:01:45;;;;;;;1.67;1.58;;;16.60;61.70;;;;;;5062444;28;20052;-22
2022/02/26 05:04:10;;;;;;;1.80;1.70;;;16.60;61.60;;;;;;5065669;28;20102;-21
2022/02/26 05:06:36;;;;;;;2.22;1.90;;;16.50;61.70;;;;;;5063571;28;20041;-22
2022/02/26 05:09:01;;;;;;;1.67;1.58;;;16.60;61.70;;;;;;5064292;28;20124;-21
2022/02/26 05:11:27;;;;;;;1.65;1.55;;;16.60;61.60;;;;;;5064296;28;20044;-21
2022/02/26 05:13:53;;;;;;;1.70;1.60;;;16.50;61.60;;;;;;5062097;28;20099;-22
2022/02/26 05:16:18;;;;;;;1.60;1.50;;;16.60;61.50;;;;;;5064592;28;20045;-21
2022/02/26 05:18:44;;;;;;;1.50;1.40;;;16.50;61.80;;;;;;5064166;28;20512;-22
2022/02/26 05:21:09;;;;;;;1.75;1.60;;;16.50;61.70;;;;;;5068875;28;20047;-21
2022/02/26 05:23:35;;;;;;;1.70;1.60;;;16.50;61.70;;;;;;5066672;28;20109;-21
2022/02/26 05:26:00;;;;;;;1.75;1.65;;;16.50;61.70;;;;;;5063951;28;20111;-21
2022/02/26 05:28:26;;;;;;;1.48;1.38;;;16.50;61.50;;;;;;5061906;28;20065;-21
2022/02/26 05:30:52;;;;;;;1.50;1.40;;;16.50;61.60;;;;;;5063825;28;20044;-23
2022/02/26 05:33:17;;;;;;;1.55;1.45;;;16.50;61.60;;;;;;5065143;28;20106;-22
2022/02/26 05:35:43;;;;;;;1.40;1.30;;;16.50;61.40;;;;;;5062533;28;20040;-22
2022/02/26 05:38:08;;;;;;;1.38;1.27;;;16.50;61.60;;;;;;5060866;28;20056;-22
2022/02/26 05:40:34;;;;;;;1.42;1.33;;;16.50;61.40;;;;;;5066263;28;20044;-21
2022/02/26 05:42:59;;;;;;;1.42;1.30;;;16.50;61.50;;;;;;5060182;28;20098;-22
2022/02/26 05:45:25;;;;;;;1.00;1.00;;;16.50;61.40;;;;;;5067634;28;20045;-22
2022/02/26 05:47:51;;;;;;;1.50;1.40;;;16.50;61.60;;;;;;5067689;28;20033;-22
2022/02/26 05:50:16;;;;;;;1.63;1.52;;;16.50;61.40;;;;;;5066488;28;20485;-22
2022/02/26 05:52:42;;;;;;;1.40;1.30;;;16.50;61.50;;;;;;5069378;28;20052;-24
2022/02/26 05:55:08;;;;;;;2.45;1.50;;;16.50;61.40;;;;;;5072634;28;20143;-22
2022/02/26 05:57:34;;;;;;;1.70;1.60;;;16.40;61.50;;;;;;5065496;28;20096;-22
2022/02/26 05:59:59;;;;;;;1.42;1.33;;;16.50;61.60;;;;;;5066980;28;20071;-22
2022/02/26 06:02:25;;;;;;;1.30;1.20;;;16.40;61.40;;;;;;5067376;28;20497;-21
2022/02/26 06:04:50;;;;;;;1.88;1.58;;;16.50;61.50;;;;;;5067354;28;20485;-22
2022/02/26 06:07:16;;;;;;;1.27;1.17;;;16.50;61.40;;;;;;5068861;28;20037;-22
2022/02/26 06:09:41;;;;;;;1.17;1.10;;;16.50;61.40;;;;;;5068250;28;20041;-21
2022/02/26 06:12:07;;;;;;;1.55;1.23;;;16.50;61.40;;;;;;5066468;28;20137;-21
2022/02/26 06:14:33;;;;;;;1.90;1.52;;;16.40;61.40;;;;;;5067242;28;20052;-23
2022/02/26 06:16:59;;;;;;;1.55;1.45;;;16.50;61.40;;;;;;5065869;28;20048;-22
2022/02/26 06:19:24;;;;;;;1.58;1.48;;;16.40;61.40;;;;;;5065504;28;20542;-22
2022/02/26 06:21:50;;;;;;;1.60;1.50;;;16.40;61.40;;;;;;5067439;28;20107;-21
2022/02/26 06:24:16;;;;;;;1.33;1.20;;;16.40;61.40;;;;;;5065654;28;20060;-21
2022/02/26 06:26:41;;;;;;;1.50;1.40;;;16.40;61.40;;;;;;5063687;28;20049;-21
2022/02/26 06:29:07;;;;;;;1.55;1.45;;;16.40;61.30;;;;;;5065228;28;20139;-22
2022/02/26 06:31:33;;;;;;;1.50;1.40;;;16.40;61.50;;;;;;5066989;28;20048;-21
2022/02/26 06:33:58;;;;;;;1.25;1.15;;;16.40;61.70;;;;;;5069221;28;20131;-22
2022/02/26 06:36:24;;;;;;;1.30;1.20;;;16.40;62.20;;;;;;5062681;28;20041;-22
2022/02/26 06:38:49;;;;;;;1.40;1.20;;;16.40;62.00;;;;;;5066723;28;20045;-22
2022/02/26 06:41:15;;;;;;;1.00;1.00;;;16.40;62.10;;;;;;5065632;28;20045;-22
2022/02/26 06:43:41;;;;;;;1.42;1.20;;;16.30;62.10;;;;;;5066118;28;20039;-24
2022/02/26 06:46:08;;;;;;;1.45;1.35;;;16.40;62.10;;;;;;5066791;28;20442;-22
2022/02/26 06:48:34;;;;;;;1.48;1.38;;;16.40;62.20;;;;;;5066090;28;20044;-23
2022/02/26 06:51:00;;;;;;;1.40;1.30;;;16.30;62.10;;;;;;5066038;28;20040;-21
2022/02/26 06:53:26;;;;;;;1.45;1.35;;;16.30;62.10;;;;;;5065448;28;20518;-22
2022/02/26 06:55:51;;;;;;;1.30;1.20;;;16.30;62.10;;;;;;5065576;28;20073;-22
2022/02/26 06:58:17;;;;;;;1.20;1.10;;;16.30;62.10;;;;;;5069359;28;20124;-21
2022/02/26 07:00:42;;;;;;;1.95;1.33;;;16.30;62.10;;;;;;5068660;28;20048;-21
2022/02/26 07:03:08;;;;;;;1.45;1.35;;;16.40;62.00;;;;;;5064989;28;20267;-21
2022/02/26 07:05:34;;;;;;;1.48;1.35;;;16.40;62.00;;;;;;5065289;28;20123;-21
2022/02/26 07:07:59;;;;;;;1.33;1.23;;;16.30;62.00;;;;;;5063925;28;20053;-22
2022/02/26 07:10:25;;;;;;;1.80;1.40;;;16.30;62.10;;;;;;5066459;28;20100;-22
2022/02/26 07:12:51;;;;;;;1.25;1.15;;;16.30;62.00;;;;;;5065911;28;20128;-21
2022/02/26 07:15:16;;;;;;;2.63;1.63;;;16.30;62.00;;;;;;5070146;28;20047;-21
2022/02/26 07:17:42;;;;;;;1.08;0.98;;;16.30;62.00;;;;;;5067451;28;20049;-21
2022/02/26 07:20:08;;;;;;;1.42;1.30;;;16.30;61.90;;;;;;5064976;28;20149;-21
2022/02/26 07:22:34;;;;;;;1.20;1.20;;;16.40;61.90;;;;;;5062799;28;20045;-22
2022/02/26 07:25:00;;;;;;;1.35;1.08;;;16.30;61.90;;;;;;5062362;28;20079;-22
2022/02/26 07:27:25;;;;;;;1.10;1.00;;;16.30;62.10;;;;;;5065305;28;20044;-23
2022/02/26 07:29:51;;;;;;;1.27;1.17;;;16.30;62.00;;;;;;5064540;28;20062;-24
2022/02/26 07:32:16;;;;;;;1.10;1.00;;;16.30;62.10;;;;;;5067810;28;20139;-21
2022/02/26 07:34:42;;;;;;;0.90;0.90;;;16.30;62.10;;;;;;5062580;28;20052;-21
2022/02/26 07:37:07;;;;;;;0.93;0.90;;;16.30;62.00;;;;;;5067791;28;20171;-21
2022/02/26 07:39:33;;;;;;;1.17;1.00;;;16.30;62.00;;;;;;5064009;28;20048;-21
2022/02/26 07:41:59;;;;;;;2.05;1.13;;;16.30;62.10;;;;;;5063452;28;20052;-22
2022/02/26 07:44:24;;;;;;;1.33;1.23;;;16.30;62.00;;;;;;5063499;28;20505;-21
2022/02/26 07:46:50;;;;;;;1.23;1.00;;;16.30;61.90;;;;;;5064876;28;20130;-22
2022/02/26 07:49:15;;;;;;;1.20;1.10;;;16.30;61.80;;;;;;5064380;28;20048;-22
2022/02/26 07:51:41;;;;;;;1.50;1.20;;;16.30;61.90;;;;;;5065107;28;20466;-21
2022/02/26 07:54:07;;;;;;;1.00;1.00;;;16.30;62.00;;;;;;5062669;28;20037;-21
2022/02/26 07:56:32;;;;;;;1.20;1.10;;;16.30;62.00;;;;;;5065417;28;20068;-21
2022/02/26 07:58:58;;;;;;;1.30;1.20;;;16.30;61.90;;;;;;5065316;28;20127;-22
2022/02/26 08:01:24;;;;;;;1.08;0.98;;;16.30;61.80;;;;;;5065672;28;20044;-21
2022/02/26 08:03:50;;;;;;;1.52;1.42;;;16.30;61.80;;;;;;5074656;28;20040;-21
2022/02/26 08:06:16;;;;;;;1.30;1.08;;;16.20;62.10;;;;;;5074389;28;20036;-22
2022/02/26 08:08:41;;;;;;;0.88;0.88;;;16.30;62.60;;;;;;5065295;28;20108;-22
2022/02/26 08:11:07;;;;;;;1.20;1.10;;;16.30;63.10;;;;;;5066531;28;20097;-24
2022/02/26 08:13:32;;;;;;;1.17;1.00;;;16.30;63.40;;;;;;5064736;28;20123;-21
2022/02/26 08:15:58;;;;;;;0.88;0.70;;;16.30;63.60;;;;;;5068260;28;20063;-23
2022/02/26 08:18:24;;;;;;;1.20;1.10;;;16.20;63.40;;;;;;5074482;28;20059;-21
2022/02/26 08:20:49;;;;;;;1.67;1.40;;;16.30;63.30;;;;;;5074384;28;20413;-21
2022/02/26 08:23:15;;;;;;;3.45;3.15;;;16.30;63.10;;;;;;5062229;28;20087;-21
2022/02/26 08:25:40;;;;;;;9.23;6.03;;;16.30;63.10;;;;;;5069774;28;20947;-21
2022/02/26 08:28:06;;;;;;;14.85;8.43;;;16.30;62.90;;;;;;5064479;28;20048;-22
2022/02/26 08:30:32;;;;;;;14.60;9.63;;;16.30;62.60;;;;;;5062288;28;20048;-21
2022/02/26 08:32:58;;;;;;;23.95;13.40;;;16.30;62.50;;;;;;5063169;28;20056;-21
2022/02/26 08:35:25;;;;;;;36.08;18.98;;;16.30;62.60;;;;;;4713705;28;10000100;-21
2022/02/26 08:37:50;;;;;;;33.85;19.05;;;16.30;62.50;;;;;;5062242;28;20048;-21
2022/02/26 08:40:16;;;;;;;36.67;19.20;;;16.30;62.40;;;;;;5060226;28;20123;-21
2022/02/26 08:42:42;;;;;;;37.50;20.15;;;16.30;62.40;;;;;;5061034;28;20568;-21
2022/02/26 08:45:08;;;;;;;38.03;20.90;;;16.30;62.50;;;;;;5070692;28;20055;-21
2022/02/26 08:47:34;;;;;;;41.90;22.08;;;16.30;62.50;;;;;;5070936;28;20044;-21
2022/02/26 08:50:00;;;;;;;43.08;23.38;;;16.20;62.80;;;;;;5070787;28;20505;-21
2022/02/26 08:52:26;;;;;;;45.05;22.45;;;16.30;62.80;;;;;;5068725;28;20060;-21
2022/02/26 08:54:51;;;;;;;51.47;24.25;;;16.30;63.00;;;;;;5070214;28;20063;-21
2022/02/26 08:57:17;;;;;;;47.17;23.77;;;16.40;63.00;;;;;;5068974;28;20055;-21
2022/02/26 08:59:43;;;;;;;40.95;21.98;;;16.30;63.10;;;;;;5068091;28;20472;-21
2022/02/26 09:02:08;;;;;;;35.78;20.45;;;16.30;63.30;;;;;;5071329;28;20546;-21
2022/02/26 09:04:35;;;;;;;37.88;20.75;;;16.30;63.50;;;;;;5060955;28;20049;-22
2022/02/26 09:07:00;;;;;;;36.38;20.83;;;16.30;63.60;;;;;;5070273;28;20060;-21
2022/02/26 09:09:26;;;;;;;38.65;20.70;;;16.40;63.70;;;;;;5062039;28;20040;-21
2022/02/26 09:11:51;;;;;;;37.38;20.63;;;16.40;63.70;;;;;;5071132;28;20072;-21
2022/02/26 09:14:17;;;;;;;31.48;17.98;;;16.40;64.00;;;;;;5068797;28;20053;-22
2022/02/26 09:16:43;;;;;;;36.80;19.20;;;16.40;63.80;;;;;;5065647;28;20106;-21
2022/02/26 09:19:08;;;;;;;30.55;16.85;;;16.40;64.00;;;;;;5065833;28;20044;-21
2022/02/26 09:21:34;;;;;;;32.67;17.10;;;16.50;64.00;;;;;;5069310;28;20083;-21
2022/02/26 09:23:59;;;;;;;34.70;17.80;;;16.50;64.10;;;;;;5071427;28;20043;-21
2022/02/26 09:26:25;;;;;;;28.98;16.30;;;16.50;63.90;;;;;;5071221;28;20137;-21
2022/02/26 09:28:51;;;;;;;28.92;16.08;;;16.60;64.00;;;;;;5064308;28;20040;-21
2022/02/26 09:31:16;;;;;;;27.65;16.25;;;16.60;64.50;;;;;;5070404;28;20054;-22
2022/02/26 09:33:42;;;;;;;24.50;15.45;;;16.50;63.60;;;;;;5069368;28;20513;-21
2022/02/26 09:36:08;;;;;;;23.27;14.98;;;16.50;63.80;;;;;;5062632;28;20041;-21
2022/02/26 09:38:34;;;;;;;31.67;15.75;;;16.50;63.70;;;;;;5065389;28;20077;-21
2022/02/26 09:41:01;;;;;;;31.25;16.02;;;16.60;64.10;;;;;;5069681;28;20076;-22
2022/02/26 09:43:26;;;;;;;26.70;14.57;;;16.60;64.30;;;;;;5065940;28;20166;-21
2022/02/26 09:45:52;;;;;;;25.33;13.68;;;16.60;64.10;;;;;;5067797;28;20195;-22
2022/02/26 09:48:18;;;;;;;25.10;14.32;;;16.70;64.00;;;;;;5070631;28;20044;-21
2022/02/26 09:50:44;;;;;;;22.08;13.05;;;16.70;63.90;;;;;;5065258;28;20041;-22
2022/02/26 09:53:10;;;;;;;20.40;13.13;;;16.70;63.80;;;;;;5054379;28;20055;-22
2022/02/26 09:55:36;;;;;;;19.05;11.95;;;16.80;63.80;;;;;;5063702;28;20785;-24
2022/02/26 09:58:02;;;;;;;22.30;12.63;;;16.80;63.70;;;;;;5071260;28;20040;-21
2022/02/26 10:00:27;;;;;;;21.98;12.40;;;16.80;63.80;;;;;;5063693;28;20052;-21
2022/02/26 10:02:53;;;;;;;23.17;12.48;;;16.90;63.80;;;;;;5069803;28;20052;-21
2022/02/26 10:05:18;;;;;;;17.77;11.23;;;16.80;63.40;;;;;;5067541;28;20500;-22
2022/02/26 10:07:46;;;;;;;20.50;11.63;;;16.90;63.60;;;;;;5070510;28;20101;-21
2022/02/26 10:10:23;;;;;;;18.02;11.13;;;16.90;63.70;;;;;;5069556;28;20048;-22
2022/02/26 10:12:58;;;;;;;19.52;11.00;;;16.90;63.70;;;;;;5059810;28;20422;-22
2022/02/26 10:15:29;;;;;;;20.15;10.88;;;17.00;63.50;;;;;;5063190;28;20044;-21
2022/02/26 10:18:05;;;;;;;19.40;10.93;;;17.00;63.60;;;;;;5070051;28;20068;-21
2022/02/26 10:20:31;;;;;;;17.02;10.45;;;17.00;63.80;;;;;;5066734;28;20059;-21
2022/02/26 10:22:57;;;;;;;17.35;10.63;;;17.00;63.80;;;;;;5070321;28;20131;-21
2022/02/26 10:25:27;;;;;;;20.40;10.60;;;17.10;63.80;;;;;;5058841;28;20063;-21
2022/02/26 10:27:58;;;;;;;15.07;9.52;;;17.10;63.80;;;;;;5066625;28;20048;-21
2022/02/26 10:30:25;;;;;;;16.08;9.75;;;17.10;63.80;;;;;;5067941;28;20135;-21
2022/02/26 10:33:25;;;;;;;15.85;9.15;;;17.10;63.80;;;;;;5073972;28;20469;-21
2022/02/26 10:35:58;;;;;;;12.68;9.30;;;17.10;63.80;;;;;;5063603;28;20064;-21
2022/02/26 10:38:28;;;;;;;15.48;9.82;;;17.10;63.90;;;;;;5063277;28;20091;-22
2022/02/26 10:41:00;;;;;;;17.25;9.82;;;17.10;63.80;;;;;;5062955;28;20456;-22
2022/02/26 10:43:42;;;;;;;14.93;9.52;;;17.10;63.80;;;;;;5062653;28;20052;-21
2022/02/26 10:46:28;;;;;;;12.98;8.30;;;17.10;63.80;;;;;;5064028;28;20049;-21
2022/02/26 10:49:02;;;;;;;13.65;8.73;;;17.10;63.80;;;;;;5072476;28;20451;-22
2022/02/26 10:51:32;;;;;;;14.27;8.43;;;17.10;63.80;;;;;;5068520;28;20058;-21
2022/02/26 10:53:59;;;;;;;14.52;8.90;;;17.20;63.70;;;;;;5073527;28;20032;-21
2022/02/26 10:56:31;;;;;;;14.15;9.05;;;17.20;63.80;;;;;;5066499;28;20102;-21
2022/02/26 10:58:56;;;;;;;14.02;9.30;;;17.20;63.80;;;;;;5067931;28;20045;-22
2022/02/26 11:01:22;;;;;;;14.55;9.18;;;17.30;63.80;;;;;;5062441;28;20052;-22
2022/02/26 11:03:48;;;;;;;16.80;8.90;;;17.30;63.60;;;;;;5066296;28;20072;-21
2022/02/26 11:06:14;;;;;;;15.50;7.70;;;17.30;63.60;;;;;;5061866;28;20060;-24
2022/02/26 11:08:41;;;;;;;11.35;7.63;;;17.30;63.50;;;;;;5073925;28;20051;-22
2022/02/26 11:11:07;;;;;;;12.52;7.97;;;17.30;63.30;;;;;;5069665;28;20576;-22
2022/02/26 11:13:34;;;;;;;15.35;7.65;;;17.40;63.20;;;;;;5064108;28;20047;-21
2022/02/26 11:16:01;;;;;;;10.27;7.03;;;17.50;63.30;;;;;;5071432;28;20083;-21
2022/02/26 11:18:33;;;;;;;12.63;7.75;;;17.50;63.40;;;;;;5064514;28;20597;-22
2022/02/26 11:20:59;;;;;;;11.57;6.72;;;17.50;63.80;;;;;;5067235;28;20052;-21
2022/02/26 11:23:24;;;;;;;13.30;6.50;;;17.50;63.60;;;;;;5071341;28;20052;-21
2022/02/26 11:25:51;;;;;;;8.27;6.35;;;17.50;63.60;;;;;;5067806;28;20052;-21
2022/02/26 11:28:17;;;;;;;11.10;7.22;;;17.50;63.70;;;;;;5066419;28;20465;-21
2022/02/26 11:30:54;;;;;;;11.60;6.95;;;17.50;63.60;;;;;;5071787;28;20048;-21
2022/02/26 11:33:20;;;;;;;9.40;6.80;;;17.50;63.60;;;;;;5067326;28;20162;-21
2022/02/26 11:35:52;;;;;;;8.82;6.45;;;17.60;63.70;;;;;;5069704;28;20060;-21
2022/02/26 11:38:18;;;;;;;10.65;7.15;;;17.60;63.50;;;;;;5064577;28;20047;-21
2022/02/26 11:40:50;;;;;;;10.48;6.35;;;17.60;63.50;;;;;;5068865;28;20044;-21
2022/02/26 11:43:46;;;;;;;9.27;6.32;;;17.60;63.50;;;;;;5071964;28;20190;-21
2022/02/26 11:46:21;;;;;;;9.25;6.57;;;17.60;63.50;;;;;;5058504;28;20143;-21
2022/02/26 11:48:48;;;;;;;7.40;5.88;;;17.60;63.70;;;;;;5064590;28;20067;-22
2022/02/26 11:51:14;;;;;;;9.70;6.40;;;17.70;63.60;;;;;;5069567;28;20124;-21
2022/02/26 11:53:43;;;;;;;7.40;6.40;;;17.60;63.50;;;;;;5071697;28;20044;-21
2022/02/26 11:56:09;;;;;;;6.65;5.97;;;17.70;63.50;;;;;;5071572;28;20055;-22
2022/02/26 11:58:37;;;;;;;8.20;5.70;;;17.70;63.40;;;;;;5072993;28;20036;-22
2022/02/26 12:01:07;;;;;;;6.15;5.55;;;17.60;63.40;;;;;;5072178;28;20127;-21
2022/02/26 12:03:34;;;;;;;7.05;5.90;;;17.70;63.30;;;;;;5072350;28;20064;-22
2022/02/26 12:06:08;;;;;;;7.75;5.38;;;17.60;63.20;;;;;;5071466;28;20495;-21
2022/02/26 12:08:49;;;;;;;5.97;5.35;;;17.70;63.10;;;;;;5072219;28;20040;-21
2022/02/26 12:11:21;;;;;;;8.30;5.82;;;17.70;63.00;;;;;;5072418;28;20504;-21
2022/02/26 12:13:50;;;;;;;9.90;5.53;;;17.70;63.00;;;;;;5071892;28;20798;-21
2022/02/26 12:16:22;;;;;;;8.85;5.50;;;17.70;63.00;;;;;;5072172;28;20056;-21
2022/02/26 12:19:13;;;;;;;9.23;5.57;;;17.70;62.90;;;;;;5072065;28;20049;-21
2022/02/26 12:21:46;;;;;;;6.18;5.35;;;17.70;62.70;;;;;;5070175;28;20102;-22
2022/02/26 12:24:22;;;;;;;7.68;5.80;;;17.70;62.70;;;;;;5072028;28;20044;-22
2022/02/26 12:27:05;;;;;;;7.15;5.68;;;17.70;62.60;;;;;;5072783;28;20182;-21
2022/02/26 12:29:38;;;;;;;6.32;5.65;;;17.70;62.60;;;;;;5071879;28;20109;-21
2022/02/26 12:32:17;;;;;;;6.53;5.47;;;17.70;62.60;;;;;;5066267;28;20049;-21
2022/02/26 12:34:51;;;;;;;6.35;5.07;;;17.70;62.40;;;;;;5069908;28;20265;-21
2022/02/26 12:37:23;;;;;;;6.60;5.00;;;17.70;62.30;;;;;;5067734;28;20061;-21
2022/02/26 12:39:53;;;;;;;5.35;4.85;;;17.80;62.50;;;;;;5070712;28;20056;-21
2022/02/26 12:42:24;;;;;;;5.55;5.00;;;17.70;62.40;;;;;;5069142;28;20060;-21